createdAt,value
2023-04-07T00:00:30.929Z,3.88
2023-04-07T00:02:57.786Z,4.35
2023-04-07T00:05:24.303Z,4.00
2023-04-07T00:07:56.510Z,4.10
2023-04-07T00:10:24.472Z,3.40
2023-04-07T00:12:50.954Z,4.15
2023-04-07T00:15:17.534Z,2.95
2023-04-07T00:17:44.129Z,4.85
2023-04-07T00:20:11.177Z,5.80
2023-04-07T00:22:37.769Z,3.85
2023-04-07T00:25:04.680Z,3.58
2023-04-07T00:27:31.186Z,3.88
2023-04-07T00:29:57.680Z,3.10
2023-04-07T00:32:24.192Z,4.72
2023-04-07T00:34:51.024Z,2.13
2023-04-07T00:37:17.610Z,3.55
2023-04-07T00:39:44.128Z,3.47
2023-04-07T00:42:11.010Z,4.65
2023-04-07T00:44:37.799Z,3.53
2023-04-07T00:47:04.390Z,3.08
2023-04-07T00:49:31.860Z,3.97
2023-04-07T00:51:58.911Z,4.18
2023-04-07T00:54:25.502Z,3.70
2023-04-07T00:56:53.534Z,7.95
2023-04-07T00:59:20.832Z,3.72
2023-04-07T01:01:59.101Z,5.10
2023-04-07T01:04:44.446Z,3.40
2023-04-07T01:07:35.510Z,3.00
2023-04-07T01:10:07.106Z,3.80
2023-04-07T01:12:47.702Z,3.20
2023-04-07T01:15:17.704Z,2.88
2023-04-07T01:17:48.463Z,3.83
2023-04-07T01:20:19.566Z,2.50
2023-04-07T01:22:51.114Z,3.45
2023-04-07T01:25:26.640Z,2.85
2023-04-07T01:28:08.932Z,3.45
2023-04-07T01:30:39.692Z,2.28
2023-04-07T01:33:08.373Z,3.30
2023-04-07T01:35:37.114Z,2.67
2023-04-07T01:38:05.318Z,4.43
2023-04-07T01:40:35.332Z,2.25
2023-04-07T01:43:03.062Z,2.65
2023-04-07T01:45:31.231Z,3.75
2023-04-07T01:50:26.188Z,3.83
2023-04-07T01:55:21.297Z,3.58
2023-04-07T01:57:47.780Z,1.83
2023-04-07T02:00:14.565Z,2.50
2023-04-07T02:02:44.962Z,3.13
2023-04-07T02:05:14.898Z,2.67
2023-04-07T02:07:46.130Z,3.63
2023-04-07T02:10:16.557Z,2.45
2023-04-07T02:12:46.338Z,2.40
2023-04-07T02:15:13.583Z,3.03
2023-04-07T02:17:43.254Z,3.10
2023-04-07T02:20:12.897Z,2.10
2023-04-07T02:22:39.743Z,2.33
2023-04-07T02:25:23.304Z,2.65
2023-04-07T02:27:50.092Z,2.65
2023-04-07T02:30:16.848Z,4.38
2023-04-07T02:32:43.366Z,2.10
2023-04-07T02:35:10.818Z,2.72
2023-04-07T02:37:37.421Z,2.17
2023-04-07T02:40:05.031Z,2.55
2023-04-07T02:42:31.751Z,2.95
2023-04-07T02:44:58.450Z,4.30
2023-04-07T02:47:25.716Z,3.28
2023-04-07T02:49:52.206Z,2.65
2023-04-07T02:52:18.771Z,4.28
2023-04-07T02:54:45.380Z,3.00
2023-04-07T02:57:11.908Z,2.40
2023-04-07T02:59:38.408Z,2.15
2023-04-07T03:02:05.138Z,2.55
2023-04-07T03:04:31.979Z,2.72
2023-04-07T03:06:58.669Z,3.22
2023-04-07T03:09:25.147Z,3.15
2023-04-07T03:11:51.670Z,2.25
2023-04-07T03:14:18.410Z,3.13
2023-04-07T03:16:46.084Z,3.15
2023-04-07T03:19:12.609Z,3.67
2023-04-07T03:21:39.816Z,3.00
2023-04-07T03:24:07.340Z,4.32
2023-04-07T03:26:33.860Z,2.72
2023-04-07T03:29:00.369Z,2.25
2023-04-07T03:31:27.044Z,4.63
2023-04-07T03:33:53.781Z,3.28
2023-04-07T03:36:20.557Z,3.28
2023-04-07T03:38:47.906Z,3.13
2023-04-07T03:41:14.393Z,2.00
2023-04-07T03:43:41.383Z,6.28
2023-04-07T03:46:08.125Z,4.25
2023-04-07T03:48:34.639Z,5.07
2023-04-07T03:51:01.808Z,4.60
2023-04-07T03:53:28.286Z,5.25
2023-04-07T03:55:54.838Z,4.22
2023-04-07T03:58:21.430Z,2.95
2023-04-07T04:00:47.934Z,3.22
2023-04-07T04:03:14.577Z,3.72
2023-04-07T04:05:41.211Z,2.35
2023-04-07T04:08:07.720Z,3.08
2023-04-07T04:10:34.260Z,3.10
2023-04-07T04:13:00.967Z,5.13
2023-04-07T04:15:27.476Z,2.38
2023-04-07T04:17:54.011Z,3.28
2023-04-07T04:20:22.237Z,4.00
2023-04-07T04:22:48.818Z,3.38
2023-04-07T04:25:17.257Z,4.07
2023-04-07T04:27:43.763Z,4.40
2023-04-07T04:30:10.447Z,3.45
2023-04-07T04:32:37.020Z,1.85
2023-04-07T04:35:03.729Z,2.78
2023-04-07T04:37:30.567Z,3.30
2023-04-07T04:39:57.053Z,3.70
2023-04-07T04:42:23.832Z,4.85
2023-04-07T04:44:50.369Z,4.80
2023-04-07T04:47:17.328Z,4.60
2023-04-07T04:49:43.932Z,3.70
2023-04-07T04:52:10.411Z,3.83
2023-04-07T04:54:36.964Z,5.50
2023-04-07T04:57:03.495Z,4.22
2023-04-07T04:59:30.014Z,4.40
2023-04-07T05:01:56.667Z,3.65
2023-04-07T05:04:23.556Z,3.60
2023-04-07T05:06:51.076Z,3.90
2023-04-07T05:09:17.571Z,3.78
2023-04-07T05:11:44.042Z,5.25
2023-04-07T05:14:10.876Z,5.70
2023-04-07T05:16:37.442Z,4.28
2023-04-07T05:19:04.193Z,3.95
2023-04-07T05:21:30.692Z,3.80
2023-04-07T05:23:57.275Z,3.67
2023-04-07T05:26:23.830Z,3.08
2023-04-07T05:28:50.326Z,4.40
2023-04-07T05:31:16.865Z,5.90
2023-04-07T05:33:43.366Z,6.30
2023-04-07T05:36:09.959Z,4.97
2023-04-07T05:38:36.548Z,4.88
2023-04-07T05:41:03.140Z,4.75
2023-04-07T05:43:29.641Z,4.05
2023-04-07T05:45:56.561Z,6.40
2023-04-07T05:48:23.059Z,4.13
2023-04-07T05:50:49.540Z,4.50
2023-04-07T05:53:16.224Z,5.10
2023-04-07T05:55:43.643Z,4.90
2023-04-07T05:58:10.170Z,5.65
2023-04-07T06:00:36.722Z,4.55
2023-04-07T06:03:03.940Z,5.18
2023-04-07T06:05:30.767Z,4.95
2023-04-07T06:07:57.323Z,7.13
2023-04-07T06:10:23.828Z,3.92
2023-04-07T06:12:50.296Z,4.32
2023-04-07T06:15:16.851Z,5.55
2023-04-07T06:17:45.673Z,4.57
2023-04-07T06:20:12.655Z,5.05
2023-04-07T06:22:39.433Z,5.25
2023-04-07T06:25:07.036Z,6.18
2023-04-07T06:27:33.644Z,5.85
2023-04-07T06:30:00.377Z,4.07
2023-04-07T06:32:26.934Z,5.20
2023-04-07T06:34:53.462Z,5.15
2023-04-07T06:37:19.977Z,4.95
2023-04-07T06:39:46.546Z,5.60
2023-04-07T06:42:13.070Z,5.30
2023-04-07T06:44:39.569Z,4.97
2023-04-07T06:47:06.576Z,4.97
2023-04-07T06:49:34.228Z,4.25
2023-04-07T06:52:01.653Z,3.65
2023-04-07T06:54:28.123Z,4.63
2023-04-07T06:56:54.703Z,4.13
2023-04-07T06:59:21.334Z,5.50
2023-04-07T07:01:49.270Z,5.95
2023-04-07T07:04:15.989Z,4.57
2023-04-07T07:06:42.616Z,4.85
2023-04-07T07:09:09.216Z,4.03
2023-04-07T07:11:35.955Z,5.88
2023-04-07T07:14:02.499Z,6.45
2023-04-07T07:16:29.070Z,4.72
2023-04-07T07:18:55.556Z,7.43
2023-04-07T07:21:22.030Z,6.43
2023-04-07T07:23:48.957Z,5.93
2023-04-07T07:26:16.024Z,4.38
2023-04-07T07:28:42.627Z,5.18
2023-04-07T07:31:13.547Z,4.63
2023-04-07T07:33:41.382Z,3.83
2023-04-07T07:36:08.506Z,4.65
2023-04-07T07:38:37.451Z,4.47
2023-04-07T07:41:04.463Z,3.67
2023-04-07T07:43:30.986Z,5.03
2023-04-07T07:45:57.560Z,4.13
2023-04-07T07:48:24.167Z,5.38
2023-04-07T07:50:51.939Z,4.93
2023-04-07T07:53:19.075Z,4.97
2023-04-07T07:55:46.930Z,3.67
2023-04-07T07:58:13.648Z,2.88
2023-04-07T08:00:40.515Z,2.88
2023-04-07T08:03:07.256Z,2.80
2023-04-07T08:05:33.842Z,3.55
2023-04-07T08:08:00.505Z,3.40
2023-04-07T08:10:27.026Z,4.40
2023-04-07T08:12:53.531Z,2.05
2023-04-07T08:15:20.660Z,2.88
2023-04-07T08:17:47.233Z,1.92
2023-04-07T08:20:13.804Z,3.30
2023-04-07T08:22:40.411Z,1.95
2023-04-07T08:25:07.059Z,2.42
2023-04-07T08:27:34.630Z,2.70
2023-04-07T08:30:04.154Z,2.63
2023-04-07T08:32:57.397Z,2.72
2023-04-07T08:35:23.963Z,4.10
2023-04-07T08:37:50.688Z,2.08
2023-04-07T08:40:17.551Z,3.10
2023-04-07T08:42:47.631Z,2.65
2023-04-07T08:45:16.544Z,4.35
2023-04-07T08:47:43.357Z,2.53
2023-04-07T08:50:11.619Z,3.25
2023-04-07T08:52:55.702Z,2.85
2023-04-07T08:55:26.390Z,3.55
2023-04-07T08:57:54.383Z,1.95
2023-04-07T09:00:21.202Z,1.73
2023-04-07T09:02:49.444Z,2.35
2023-04-07T09:05:16.191Z,2.20
2023-04-07T09:07:46.096Z,2.17
2023-04-07T09:10:12.639Z,1.80
2023-04-07T09:12:39.439Z,3.03
2023-04-07T09:15:07.816Z,2.15
2023-04-07T09:17:34.494Z,2.15
2023-04-07T09:20:01.982Z,2.42
2023-04-07T09:22:42.584Z,2.55
2023-04-07T09:25:16.585Z,2.33
2023-04-07T09:28:03.441Z,3.35
2023-04-07T09:30:32.101Z,1.92
2023-04-07T09:33:00.056Z,1.60
2023-04-07T09:35:28.349Z,2.35
2023-04-07T09:38:09.155Z,3.40
2023-04-07T09:40:37.445Z,2.72
2023-04-07T09:43:05.452Z,3.15
2023-04-07T09:45:35.671Z,3.15
2023-04-07T09:48:08.632Z,2.40
2023-04-07T09:50:39.239Z,1.63
2023-04-07T09:53:05.911Z,1.65
2023-04-07T09:55:33.908Z,2.03
2023-04-07T10:00:27.192Z,1.77
2023-04-07T10:02:54.347Z,1.95
2023-04-07T10:05:22.689Z,2.10
2023-04-07T10:07:49.534Z,5.18
2023-04-07T10:10:16.685Z,2.90
2023-04-07T10:12:44.446Z,4.47
2023-04-07T10:15:16.596Z,2.10
2023-04-07T10:17:51.734Z,2.63
2023-04-07T10:20:21.005Z,5.28
2023-04-07T10:22:51.538Z,2.95
2023-04-07T10:25:21.260Z,2.17
2023-04-07T10:27:52.338Z,2.63
2023-04-07T10:30:24.726Z,3.63
2023-04-07T10:32:54.100Z,3.75
2023-04-07T10:35:22.089Z,1.90
2023-04-07T10:38:07.188Z,2.00
2023-04-07T10:40:35.523Z,1.45
2023-04-07T10:43:02.559Z,3.05
2023-04-07T10:45:48.389Z,1.10
2023-04-07T10:48:17.188Z,2.05
2023-04-07T10:50:45.765Z,1.90
2023-04-07T10:53:16.343Z,1.40
2023-04-07T10:55:47.229Z,1.23
2023-04-07T10:58:28.976Z,1.25
2023-04-07T11:01:07.966Z,2.33
2023-04-07T11:03:40.330Z,1.30
2023-04-07T11:06:12.343Z,2.08
2023-04-07T11:08:44.379Z,1.38
2023-04-07T11:11:13.678Z,1.73
2023-04-07T11:13:43.771Z,1.65
2023-04-07T11:16:11.368Z,0.80
2023-04-07T11:18:38.997Z,1.08
2023-04-07T11:21:06.817Z,1.95
2023-04-07T11:23:44.329Z,1.33
2023-04-07T11:26:12.530Z,0.73
2023-04-07T11:28:47.555Z,1.15
2023-04-07T11:31:26.046Z,1.10
2023-04-07T11:33:57.133Z,1.30
2023-04-07T11:36:41.113Z,0.85
2023-04-07T11:39:20.579Z,0.40
2023-04-07T11:41:51.096Z,1.10
2023-04-07T11:44:17.938Z,0.82
2023-04-07T11:46:59.081Z,1.00
2023-04-07T11:49:28.703Z,2.05
2023-04-07T11:52:03.772Z,1.38
2023-04-07T11:54:43.810Z,1.52
2023-04-07T11:57:12.926Z,0.90
2023-04-07T11:59:41.181Z,0.47
2023-04-07T12:04:37.818Z,2.20
2023-04-07T12:07:11.641Z,1.20
2023-04-07T12:09:38.756Z,3.28
2023-04-07T12:12:07.713Z,1.38
2023-04-07T12:14:35.606Z,1.70
2023-04-07T12:17:03.738Z,1.23
2023-04-07T12:19:36.144Z,1.80
2023-04-07T12:22:03.548Z,0.90
2023-04-07T12:24:32.234Z,1.75
2023-04-07T12:26:59.704Z,1.50
2023-04-07T12:29:26.404Z,3.13
2023-04-07T12:31:53.108Z,3.70
2023-04-07T12:34:19.888Z,3.38
2023-04-07T12:36:46.581Z,2.80
2023-04-07T12:39:13.260Z,4.80
2023-04-07T12:41:53.118Z,3.40
2023-04-07T12:44:20.019Z,3.17
2023-04-07T12:46:47.152Z,3.42
2023-04-07T12:49:13.755Z,4.47
2023-04-07T12:51:40.505Z,5.03
2023-04-07T12:54:07.557Z,4.38
2023-04-07T12:56:34.243Z,3.35
2023-04-07T12:59:00.787Z,3.60
2023-04-07T13:01:27.511Z,3.95
2023-04-07T13:03:54.567Z,0.98
2023-04-07T13:06:21.320Z,2.22
2023-04-07T13:08:47.887Z,2.60
2023-04-07T13:11:14.544Z,1.10
2023-04-07T13:13:41.168Z,2.67
2023-04-07T13:16:08.608Z,0.75
2023-04-07T13:18:35.431Z,1.20
2023-04-07T13:21:19.810Z,2.05
2023-04-07T13:23:50.666Z,0.73
2023-04-07T13:26:17.295Z,0.90
2023-04-07T13:28:46.006Z,2.10
2023-04-07T13:31:15.925Z,3.55
2023-04-07T13:33:42.766Z,1.27
2023-04-07T13:36:09.372Z,1.25
2023-04-07T13:38:36.656Z,0.68
2023-04-07T13:41:04.061Z,1.85
2023-04-07T13:43:30.659Z,1.23
2023-04-07T13:45:57.306Z,1.13
2023-04-07T13:48:23.829Z,1.48
2023-04-07T13:50:50.390Z,1.25
2023-04-07T13:53:18.995Z,2.10
2023-04-07T13:55:46.092Z,0.30
2023-04-07T13:58:12.904Z,0.88
2023-04-07T14:00:40.413Z,1.30
2023-04-07T14:03:08.660Z,1.25
2023-04-07T14:05:36.183Z,1.35
2023-04-07T14:08:02.911Z,2.10
2023-04-07T14:10:29.689Z,0.50
2023-04-07T14:12:56.368Z,0.47
2023-04-07T14:15:23.153Z,0.52
2023-04-07T14:17:49.796Z,0.70
2023-04-07T14:20:16.609Z,1.65
2023-04-07T14:22:49.524Z,0.95
2023-04-07T14:25:16.721Z,1.35
2023-04-07T14:27:43.402Z,2.47
2023-04-07T14:30:10.826Z,2.33
2023-04-07T14:32:37.560Z,0.93
2023-04-07T14:35:04.507Z,0.60
2023-04-07T14:37:31.257Z,1.13
2023-04-07T14:42:29.741Z,1.48
2023-04-07T14:44:56.742Z,0.80
2023-04-07T14:47:23.612Z,0.70
2023-04-07T14:49:53.229Z,0.40
2023-04-07T14:52:21.944Z,0.85
2023-04-07T14:54:48.937Z,1.10
2023-04-07T14:57:16.810Z,1.25
2023-04-07T14:59:43.797Z,0.80
2023-04-07T15:02:10.590Z,1.40
2023-04-07T15:04:37.527Z,0.73
2023-04-07T15:07:05.319Z,1.17
2023-04-07T15:09:32.072Z,1.08
2023-04-07T15:12:00.466Z,1.10
2023-04-07T15:14:29.942Z,1.42
2023-04-07T15:17:05.709Z,1.15
2023-04-07T15:19:35.666Z,1.10
2023-04-07T15:22:09.878Z,1.00
2023-04-07T15:24:42.150Z,1.52
2023-04-07T15:27:26.855Z,2.05
2023-04-07T15:36:31.701Z,0.75
2023-04-07T15:39:04.030Z,0.40
2023-04-07T15:41:30.739Z,0.82
2023-04-07T15:44:00.006Z,2.05
2023-04-07T15:46:27.040Z,0.95
2023-04-07T15:48:53.564Z,1.45
2023-04-07T15:51:20.520Z,1.73
2023-04-07T15:53:47.277Z,2.53
2023-04-07T15:56:13.977Z,4.00
2023-04-07T15:58:40.507Z,3.20
2023-04-07T16:01:08.069Z,5.88
2023-04-07T16:03:34.762Z,5.18
2023-04-07T16:06:01.300Z,3.42
2023-04-07T16:08:27.782Z,4.90
2023-04-07T16:10:54.276Z,3.75
2023-04-07T16:13:20.868Z,4.10
2023-04-07T16:15:47.461Z,3.80
2023-04-07T16:18:14.004Z,3.00
2023-04-07T16:20:40.645Z,2.75
2023-04-07T16:23:07.196Z,3.47
2023-04-07T16:25:33.715Z,3.08
2023-04-07T16:28:00.243Z,2.55
2023-04-07T16:30:26.774Z,3.75
2023-04-07T16:32:53.354Z,2.40
2023-04-07T16:35:20.075Z,2.67
2023-04-07T16:37:46.930Z,2.63
2023-04-07T16:40:13.921Z,3.08
2023-04-07T16:42:40.915Z,1.48
2023-04-07T16:45:07.958Z,3.03
2023-04-07T16:47:35.379Z,1.63
2023-04-07T16:50:04.161Z,1.70
2023-04-07T16:52:31.085Z,1.60
2023-04-07T16:54:58.035Z,0.85
2023-04-07T16:57:24.582Z,1.38
2023-04-07T16:59:51.116Z,1.30
2023-04-07T17:02:17.772Z,2.13
2023-04-07T17:04:44.641Z,1.80
2023-04-07T17:07:11.845Z,1.88
2023-04-07T17:09:38.861Z,1.20
2023-04-07T17:12:08.575Z,1.45
2023-04-07T17:14:35.144Z,1.38
2023-04-07T17:17:02.040Z,1.30
2023-04-07T17:19:28.614Z,1.58
2023-04-07T17:21:55.344Z,1.88
2023-04-07T17:24:22.159Z,1.00
2023-04-07T17:26:48.680Z,1.00
2023-04-07T17:29:16.852Z,1.65
2023-04-07T17:31:44.130Z,2.00
2023-04-07T17:34:11.861Z,1.27
2023-04-07T17:36:38.616Z,1.52
2023-04-07T17:39:05.447Z,1.15
2023-04-07T17:41:34.996Z,1.70
2023-04-07T17:44:01.798Z,3.03
2023-04-07T17:46:28.531Z,3.38
2023-04-07T17:48:55.088Z,1.60
2023-04-07T17:51:21.670Z,2.70
2023-04-07T17:53:48.604Z,1.73
2023-04-07T17:56:15.370Z,1.55
2023-04-07T17:58:41.883Z,3.75
2023-04-07T18:01:10.683Z,1.75
2023-04-07T18:03:38.281Z,1.77
2023-04-07T18:06:06.318Z,2.53
2023-04-07T18:08:33.010Z,1.73
2023-04-07T18:10:59.562Z,2.55
2023-04-07T18:13:26.118Z,2.38
2023-04-07T18:15:53.117Z,1.40
2023-04-07T18:18:20.278Z,3.22
2023-04-07T18:20:46.845Z,2.53
2023-04-07T18:23:13.726Z,6.15
2023-04-07T18:25:40.367Z,3.20
2023-04-07T18:28:06.857Z,2.63
2023-04-07T18:30:33.574Z,3.92
2023-04-07T18:33:00.324Z,6.68
2023-04-07T18:35:27.081Z,7.22
2023-04-07T18:37:53.672Z,6.95
2023-04-07T18:40:20.473Z,6.75
2023-04-07T18:42:47.057Z,6.57
2023-04-07T18:45:16.421Z,6.43
2023-04-07T18:47:43.041Z,9.60
2023-04-07T18:50:10.109Z,8.70
2023-04-07T18:52:36.696Z,6.63
2023-04-07T18:55:04.039Z,15.07
2023-04-07T18:57:30.533Z,8.60
2023-04-07T18:59:57.013Z,7.38
2023-04-07T19:02:23.788Z,8.40
2023-04-07T19:04:50.486Z,6.72
2023-04-07T19:07:17.053Z,8.50
2023-04-07T19:09:43.562Z,8.48
2023-04-07T19:12:11.339Z,8.88
2023-04-07T19:14:37.895Z,6.07
2023-04-07T19:17:04.462Z,7.07
2023-04-07T19:19:31.441Z,6.78
2023-04-07T19:21:57.929Z,8.07
2023-04-07T19:24:24.541Z,7.90
2023-04-07T19:26:52.611Z,7.13
2023-04-07T19:29:19.128Z,7.90
2023-04-07T19:31:45.771Z,9.25
2023-04-07T19:34:12.307Z,7.05
2023-04-07T19:36:38.855Z,7.25
2023-04-07T19:39:05.417Z,7.78
2023-04-07T19:41:32.037Z,10.52
2023-04-07T19:43:58.551Z,8.02
2023-04-07T19:46:25.148Z,14.30
2023-04-07T19:48:51.705Z,7.85
2023-04-07T19:51:18.217Z,7.80
2023-04-07T19:53:44.703Z,8.18
2023-04-07T19:56:11.348Z,8.02
2023-04-07T19:58:38.602Z,7.22
2023-04-07T20:01:05.132Z,6.93
2023-04-07T20:03:32.058Z,7.20
2023-04-07T20:05:59.655Z,5.75
2023-04-07T20:08:26.303Z,7.25
2023-04-07T20:10:53.151Z,4.88
2023-04-07T20:13:20.306Z,6.95
2023-04-07T20:15:49.023Z,5.60
2023-04-07T20:18:18.446Z,5.15
2023-04-07T20:20:45.944Z,6.97
2023-04-07T20:23:12.958Z,5.25
2023-04-07T20:25:39.512Z,5.22
2023-04-07T20:28:06.182Z,5.57
2023-04-07T20:30:32.704Z,5.28
2023-04-07T20:32:59.256Z,4.47
2023-04-07T20:35:26.037Z,5.00
2023-04-07T20:37:52.559Z,4.25
2023-04-07T20:40:19.046Z,5.78
2023-04-07T20:42:46.772Z,4.68
2023-04-07T20:45:13.372Z,3.80
2023-04-07T20:47:40.513Z,2.47
2023-04-07T20:50:08.200Z,3.47
2023-04-07T20:52:39.451Z,4.25
2023-04-07T20:55:07.299Z,3.42
2023-04-07T20:57:33.854Z,3.10
2023-04-07T21:00:01.182Z,3.80
2023-04-07T21:02:27.886Z,3.42
2023-04-07T21:04:54.478Z,4.22
2023-04-07T21:07:21.068Z,2.60
2023-04-07T21:09:47.562Z,3.90
2023-04-07T21:12:14.236Z,2.50
2023-04-07T21:14:40.978Z,2.22
2023-04-07T21:17:07.493Z,2.60
2023-04-07T21:19:33.990Z,3.05
2023-04-07T21:22:01.030Z,3.05
2023-04-07T21:24:29.607Z,2.47
2023-04-07T21:26:56.140Z,2.20
2023-04-07T21:29:22.703Z,2.15
2023-04-07T21:31:49.633Z,2.05
2023-04-07T21:34:16.591Z,2.22
2023-04-07T21:36:43.618Z,1.67
2023-04-07T21:39:10.128Z,1.95
2023-04-07T21:41:37.218Z,2.05
2023-04-07T21:44:07.260Z,2.25
2023-04-07T21:46:34.491Z,1.35
2023-04-07T21:49:00.994Z,2.40
2023-04-07T21:51:27.668Z,1.92
2023-04-07T21:53:54.242Z,2.25
2023-04-07T21:56:21.902Z,1.85
2023-04-07T21:58:48.610Z,0.80
2023-04-07T22:01:15.489Z,2.38
2023-04-07T22:03:42.217Z,1.23
2023-04-07T22:06:08.715Z,2.08
2023-04-07T22:08:35.231Z,1.38
2023-04-07T22:11:01.748Z,1.38
2023-04-07T22:13:28.272Z,1.85
2023-04-07T22:15:55.693Z,1.77
2023-04-07T22:18:22.294Z,1.27
2023-04-07T22:20:48.825Z,1.75
2023-04-07T22:23:15.374Z,1.27
2023-04-07T22:25:41.827Z,1.55
2023-04-07T22:28:08.394Z,1.10
2023-04-07T22:30:34.988Z,1.60
2023-04-07T22:33:01.575Z,2.05
2023-04-07T22:35:28.232Z,1.77
2023-04-07T22:37:54.787Z,1.00
2023-04-07T22:40:21.354Z,2.20
2023-04-07T22:42:47.909Z,2.20
2023-04-07T22:45:14.460Z,1.25
2023-04-07T22:47:41.005Z,0.93
2023-04-07T22:50:07.940Z,0.98
2023-04-07T22:52:34.446Z,1.58
2023-04-07T22:55:01.041Z,2.70
2023-04-07T22:57:29.020Z,2.17
2023-04-07T23:02:22.322Z,1.20
2023-04-07T23:04:49.692Z,0.80
2023-04-07T23:07:16.503Z,2.63
2023-04-07T23:09:43.038Z,1.05
2023-04-07T23:12:09.535Z,1.63
2023-04-07T23:14:36.032Z,1.48
2023-04-07T23:17:02.869Z,1.52
2023-04-07T23:19:29.409Z,1.17
2023-04-07T23:21:55.935Z,2.35
2023-04-07T23:24:22.433Z,2.33
2023-04-07T23:26:48.906Z,1.63
2023-04-07T23:29:15.641Z,0.68
2023-04-07T23:31:42.287Z,1.55
2023-04-07T23:34:08.806Z,1.35
2023-04-07T23:36:35.311Z,1.27
2023-04-07T23:39:02.637Z,1.58
2023-04-07T23:41:29.192Z,1.35
2023-04-07T23:43:55.746Z,1.17
2023-04-07T23:46:24.342Z,2.42
2023-04-07T23:48:51.125Z,2.45
2023-04-07T23:51:17.927Z,1.80
2023-04-07T23:53:44.404Z,1.25
2023-04-07T23:56:11.030Z,1.23
2023-04-07T23:58:37.512Z,1.40
